9SESM HKMS-HKSL
Flight info
| Callsign | 9SESM |
|---|---|
| Flight time | 1h 11m |
| Altitude | FL070 |
| Route | |
| Aircraft | C208/M-VGD/C |
Departure
| Time | 2026-04-30 09:39 |
|---|---|
| Airport | Mara Serena Lodge Airstrip (HKMS) |
Arrival
| Time | 2026-04-30 10:50 |
|---|---|
| Airport | Solio Ranch Airport (HKSL) |
| Time | Latitude | Longitude | Altitude | Speed | Heading |
|---|---|---|---|---|---|
| 2026-04-30 09:38 | -1.30934 | 35.28399 | 10828 ft | 134 kts | 51° |
| 2026-04-30 09:39 | -1.30446 | 35.28992 | 10960 ft | 134 kts | 51° |
| 2026-04-30 09:39 | -1.29853 | 35.29716 | 11131 ft | 136 kts | 51° |
| 2026-04-30 09:39 | -1.29381 | 35.30294 | 11308 ft | 135 kts | 51° |
| 2026-04-30 09:39 | -1.28805 | 35.31004 | 11504 ft | 135 kts | 51° |
| 2026-04-30 09:40 | -1.28234 | 35.31711 | 11700 ft | 135 kts | 51° |
| 2026-04-30 09:40 | -1.27652 | 35.32437 | 11885 ft | 136 kts | 51° |
| 2026-04-30 09:40 | -1.27072 | 35.33163 | 12073 ft | 136 kts | 51° |
| 2026-04-30 09:40 | -1.26485 | 35.33902 | 12261 ft | 136 kts | 51° |
| 2026-04-30 09:41 | -1.25906 | 35.34632 | 12440 ft | 136 kts | 51° |
| 2026-04-30 09:41 | -1.25326 | 35.35365 | 12618 ft | 136 kts | 51° |
| 2026-04-30 09:41 | -1.24743 | 35.36104 | 12789 ft | 137 kts | 51° |
| 2026-04-30 09:41 | -1.24165 | 35.36837 | 12960 ft | 137 kts | 51° |
| 2026-04-30 09:42 | -1.23586 | 35.37575 | 13124 ft | 137 kts | 51° |
| 2026-04-30 09:42 | -1.23006 | 35.38315 | 13287 ft | 137 kts | 51° |
| 2026-04-30 09:42 | -1.22423 | 35.39061 | 13444 ft | 138 kts | 51° |
| 2026-04-30 09:42 | -1.21838 | 35.39812 | 13600 ft | 138 kts | 51° |
| 2026-04-30 09:43 | -1.21250 | 35.40569 | 13655 ft | 144 kts | 51° |
| 2026-04-30 09:43 | -1.20626 | 35.41371 | 13658 ft | 152 kts | 51° |
| 2026-04-30 09:43 | -1.19991 | 35.42187 | 13643 ft | 158 kts | 51° |
| 2026-04-30 09:43 | -1.19299 | 35.43073 | 13595 ft | 163 kts | 51° |
| 2026-04-30 09:44 | -1.18601 | 35.43968 | 13592 ft | 164 kts | 51° |
| 2026-04-30 09:44 | -1.17897 | 35.44870 | 13593 ft | 164 kts | 51° |
| 2026-04-30 09:44 | -1.17192 | 35.45773 | 13595 ft | 165 kts | 51° |
| 2026-04-30 09:44 | -1.16487 | 35.46675 | 13597 ft | 165 kts | 51° |
| 2026-04-30 09:45 | -1.15787 | 35.47572 | 13600 ft | 165 kts | 51° |
| 2026-04-30 09:45 | -1.15083 | 35.48475 | 13604 ft | 165 kts | 51° |
| 2026-04-30 09:45 | -1.14388 | 35.49365 | 13607 ft | 165 kts | 51° |
| 2026-04-30 09:45 | -1.13682 | 35.50270 | 13612 ft | 165 kts | 51° |
| 2026-04-30 09:46 | -1.12980 | 35.51169 | 13616 ft | 165 kts | 51° |
| 2026-04-30 09:46 | -1.12279 | 35.52066 | 13621 ft | 165 kts | 51° |
| 2026-04-30 09:46 | -1.11583 | 35.52958 | 13624 ft | 165 kts | 51° |
| 2026-04-30 09:46 | -1.10880 | 35.53861 | 13620 ft | 165 kts | 51° |
| 2026-04-30 09:47 | -1.10172 | 35.54771 | 13615 ft | 166 kts | 51° |
| 2026-04-30 09:47 | -1.09472 | 35.55674 | 13610 ft | 166 kts | 51° |
| 2026-04-30 09:47 | -1.08768 | 35.56585 | 13605 ft | 166 kts | 51° |
| 2026-04-30 09:47 | -1.08057 | 35.57507 | 13600 ft | 166 kts | 51° |
| 2026-04-30 09:48 | -1.07356 | 35.58419 | 13595 ft | 166 kts | 51° |
| 2026-04-30 09:48 | -1.06651 | 35.59337 | 13590 ft | 166 kts | 51° |
| 2026-04-30 09:48 | -1.05949 | 35.60255 | 13585 ft | 167 kts | 51° |
| 2026-04-30 09:48 | -1.05247 | 35.61175 | 13580 ft | 167 kts | 51° |
| 2026-04-30 09:49 | -1.04547 | 35.62094 | 13576 ft | 167 kts | 51° |
| 2026-04-30 09:49 | -1.03847 | 35.63015 | 13571 ft | 167 kts | 51° |
| 2026-04-30 09:49 | -1.03141 | 35.63946 | 13566 ft | 167 kts | 51° |
| 2026-04-30 09:49 | -1.02441 | 35.64871 | 13561 ft | 167 kts | 51° |
| 2026-04-30 09:50 | -1.01867 | 35.65631 | 13558 ft | 167 kts | 51° |
| 2026-04-30 09:50 | -1.01205 | 35.66509 | 13553 ft | 168 kts | 51° |
| 2026-04-30 09:50 | -1.00550 | 35.67379 | 13548 ft | 168 kts | 51° |
| 2026-04-30 09:50 | -0.99853 | 35.68306 | 13543 ft | 168 kts | 51° |
| 2026-04-30 09:51 | -0.99157 | 35.69234 | 13539 ft | 169 kts | 51° |
| 2026-04-30 09:51 | -0.98453 | 35.70173 | 13534 ft | 170 kts | 51° |
| 2026-04-30 09:51 | -0.97754 | 35.71108 | 13529 ft | 170 kts | 51° |
| 2026-04-30 09:51 | -0.97044 | 35.72059 | 13523 ft | 171 kts | 51° |
| 2026-04-30 09:52 | -0.96349 | 35.72992 | 13518 ft | 171 kts | 51° |
| 2026-04-30 09:52 | -0.95641 | 35.73943 | 13514 ft | 171 kts | 51° |
| 2026-04-30 09:52 | -0.94943 | 35.74880 | 13513 ft | 171 kts | 51° |
| 2026-04-30 09:52 | -0.94238 | 35.75827 | 13513 ft | 171 kts | 51° |
| 2026-04-30 09:53 | -0.93533 | 35.76775 | 13516 ft | 171 kts | 51° |
| 2026-04-30 09:53 | -0.92832 | 35.77719 | 13520 ft | 171 kts | 52° |
| 2026-04-30 09:53 | -0.92185 | 35.78697 | 13524 ft | 171 kts | 55° |
| 2026-04-30 09:53 | -0.91548 | 35.79692 | 13527 ft | 171 kts | 55° |
| 2026-04-30 09:54 | -0.90925 | 35.80668 | 13530 ft | 171 kts | 55° |
| 2026-04-30 09:54 | -0.90292 | 35.81662 | 13533 ft | 171 kts | 55° |
| 2026-04-30 09:54 | -0.89744 | 35.82522 | 13536 ft | 171 kts | 55° |
| 2026-04-30 09:54 | -0.89142 | 35.83466 | 13538 ft | 171 kts | 55° |
| 2026-04-30 09:55 | -0.88500 | 35.84474 | 13539 ft | 171 kts | 55° |
| 2026-04-30 09:55 | -0.87862 | 35.85475 | 13540 ft | 171 kts | 55° |
| 2026-04-30 09:55 | -0.87220 | 35.86483 | 13540 ft | 172 kts | 55° |
| 2026-04-30 09:55 | -0.86583 | 35.87482 | 13540 ft | 172 kts | 55° |
| 2026-04-30 09:56 | -0.85958 | 35.88463 | 13540 ft | 172 kts | 55° |
| 2026-04-30 09:56 | -0.85316 | 35.89472 | 13539 ft | 172 kts | 55° |
| 2026-04-30 09:56 | -0.84686 | 35.90459 | 13538 ft | 172 kts | 55° |
| 2026-04-30 09:56 | -0.84053 | 35.91453 | 13536 ft | 172 kts | 55° |
| 2026-04-30 09:57 | -0.83419 | 35.92447 | 13534 ft | 172 kts | 55° |
| 2026-04-30 09:57 | -0.82798 | 35.93422 | 13531 ft | 172 kts | 55° |
| 2026-04-30 09:57 | -0.82160 | 35.94422 | 13528 ft | 172 kts | 55° |
| 2026-04-30 09:57 | -0.81528 | 35.95413 | 13525 ft | 172 kts | 55° |
| 2026-04-30 09:58 | -0.80898 | 35.96401 | 13521 ft | 172 kts | 55° |
| 2026-04-30 09:58 | -0.80255 | 35.97411 | 13517 ft | 172 kts | 55° |
| 2026-04-30 09:58 | -0.79617 | 35.98410 | 13512 ft | 172 kts | 55° |
| 2026-04-30 09:58 | -0.78996 | 35.99384 | 13507 ft | 172 kts | 55° |
| 2026-04-30 09:59 | -0.77709 | 36.01402 | 13500 ft | 172 kts | 55° |
| 2026-04-30 09:59 | -0.76428 | 36.03411 | 13500 ft | 172 kts | 55° |
| 2026-04-30 10:00 | -0.75140 | 36.05431 | 13500 ft | 172 kts | 55° |
| 2026-04-30 10:00 | -0.74503 | 36.06430 | 13500 ft | 172 kts | 55° |
| 2026-04-30 10:01 | -0.73253 | 36.08390 | 13500 ft | 172 kts | 55° |
| 2026-04-30 10:01 | -0.72612 | 36.09395 | 13500 ft | 172 kts | 55° |
| 2026-04-30 10:01 | -0.71972 | 36.10397 | 13500 ft | 172 kts | 55° |
| 2026-04-30 10:02 | -0.70689 | 36.12408 | 13500 ft | 172 kts | 55° |
| 2026-04-30 10:02 | -0.70046 | 36.13414 | 13500 ft | 172 kts | 55° |
| 2026-04-30 10:02 | -0.69406 | 36.14417 | 13500 ft | 172 kts | 55° |
| 2026-04-30 10:02 | -0.68766 | 36.15419 | 13500 ft | 172 kts | 55° |
| 2026-04-30 10:03 | -0.68126 | 36.16421 | 13500 ft | 172 kts | 55° |
| 2026-04-30 10:03 | -0.67484 | 36.17426 | 13500 ft | 172 kts | 55° |
| 2026-04-30 10:03 | -0.66840 | 36.18435 | 13500 ft | 172 kts | 55° |
| 2026-04-30 10:03 | -0.66196 | 36.19442 | 13500 ft | 172 kts | 55° |
| 2026-04-30 10:04 | -0.65555 | 36.20446 | 13500 ft | 172 kts | 55° |
| 2026-04-30 10:04 | -0.64914 | 36.21450 | 13500 ft | 172 kts | 55° |
| 2026-04-30 10:04 | -0.64271 | 36.22457 | 13500 ft | 172 kts | 55° |
| 2026-04-30 10:04 | -0.63630 | 36.23460 | 13500 ft | 172 kts | 55° |
| 2026-04-30 10:05 | -0.62989 | 36.24464 | 13500 ft | 172 kts | 55° |
| 2026-04-30 10:05 | -0.62345 | 36.25473 | 13500 ft | 172 kts | 55° |
| 2026-04-30 10:05 | -0.61709 | 36.26468 | 13500 ft | 172 kts | 55° |
| 2026-04-30 10:05 | -0.61067 | 36.27473 | 13500 ft | 172 kts | 55° |
| 2026-04-30 10:06 | -0.60425 | 36.28478 | 13500 ft | 172 kts | 55° |
| 2026-04-30 10:06 | -0.59783 | 36.29483 | 13500 ft | 172 kts | 55° |
| 2026-04-30 10:06 | -0.59141 | 36.30489 | 13500 ft | 172 kts | 55° |
| 2026-04-30 10:06 | -0.58495 | 36.31500 | 13500 ft | 172 kts | 55° |
| 2026-04-30 10:07 | -0.57854 | 36.32503 | 13500 ft | 172 kts | 55° |
| 2026-04-30 10:07 | -0.57214 | 36.33506 | 13500 ft | 172 kts | 55° |
| 2026-04-30 10:07 | -0.56574 | 36.34507 | 13500 ft | 172 kts | 55° |
| 2026-04-30 10:07 | -0.55931 | 36.35515 | 13500 ft | 172 kts | 55° |
| 2026-04-30 10:08 | -0.55290 | 36.36517 | 13500 ft | 172 kts | 55° |
| 2026-04-30 10:08 | -0.54650 | 36.37520 | 13500 ft | 172 kts | 55° |
| 2026-04-30 10:08 | -0.54008 | 36.38525 | 13500 ft | 172 kts | 55° |
| 2026-04-30 10:08 | -0.53362 | 36.39536 | 13500 ft | 172 kts | 55° |
| 2026-04-30 10:09 | -0.52722 | 36.40538 | 13500 ft | 172 kts | 55° |
| 2026-04-30 10:09 | -0.52085 | 36.41537 | 13500 ft | 172 kts | 55° |
| 2026-04-30 10:09 | -0.51444 | 36.42539 | 13500 ft | 172 kts | 55° |
| 2026-04-30 10:09 | -0.50802 | 36.43546 | 13500 ft | 172 kts | 55° |
| 2026-04-30 10:10 | -0.50162 | 36.44547 | 13500 ft | 172 kts | 55° |
| 2026-04-30 10:10 | -0.49521 | 36.45550 | 13500 ft | 172 kts | 55° |
| 2026-04-30 10:10 | -0.48875 | 36.46563 | 13500 ft | 172 kts | 55° |
| 2026-04-30 10:10 | -0.48233 | 36.47568 | 13500 ft | 172 kts | 55° |
| 2026-04-30 10:11 | -0.47595 | 36.48567 | 13500 ft | 172 kts | 55° |
| 2026-04-30 10:11 | -0.46953 | 36.49571 | 13500 ft | 172 kts | 55° |
| 2026-04-30 10:11 | -0.46313 | 36.50573 | 13500 ft | 172 kts | 55° |
| 2026-04-30 10:11 | -0.45671 | 36.51579 | 13500 ft | 172 kts | 55° |
| 2026-04-30 10:12 | -0.45047 | 36.52555 | 13500 ft | 172 kts | 55° |
| 2026-04-30 10:12 | -0.44389 | 36.53585 | 13500 ft | 172 kts | 55° |
| 2026-04-30 10:12 | -0.43747 | 36.54590 | 13500 ft | 172 kts | 55° |
| 2026-04-30 10:12 | -0.43108 | 36.55591 | 13500 ft | 172 kts | 55° |
| 2026-04-30 10:13 | -0.42469 | 36.56592 | 13499 ft | 172 kts | 55° |
| 2026-04-30 10:13 | -0.41827 | 36.57596 | 13499 ft | 172 kts | 55° |
| 2026-04-30 10:13 | -0.41186 | 36.58601 | 13499 ft | 172 kts | 55° |
| 2026-04-30 10:13 | -0.40546 | 36.59602 | 13499 ft | 172 kts | 55° |
| 2026-04-30 10:14 | -0.39911 | 36.60597 | 13500 ft | 172 kts | 55° |
| 2026-04-30 10:14 | -0.39279 | 36.61588 | 13614 ft | 166 kts | 55° |
| 2026-04-30 10:14 | -0.38030 | 36.63550 | 13629 ft | 169 kts | 55° |
| 2026-04-30 10:15 | -0.37397 | 36.64544 | 13628 ft | 170 kts | 55° |
| 2026-04-30 10:15 | -0.36767 | 36.65531 | 13628 ft | 171 kts | 55° |
| 2026-04-30 10:15 | -0.36130 | 36.66532 | 13629 ft | 171 kts | 55° |
| 2026-04-30 10:15 | -0.35485 | 36.67544 | 13628 ft | 172 kts | 55° |
| 2026-04-30 10:16 | -0.34843 | 36.68550 | 13628 ft | 172 kts | 55° |
| 2026-04-30 10:16 | -0.34204 | 36.69554 | 13628 ft | 172 kts | 55° |
| 2026-04-30 10:16 | -0.33563 | 36.70559 | 13628 ft | 172 kts | 55° |
| 2026-04-30 10:17 | -0.32280 | 36.72571 | 13628 ft | 172 kts | 55° |
| 2026-04-30 10:17 | -0.30993 | 36.74589 | 13628 ft | 172 kts | 55° |
| 2026-04-30 10:17 | -0.30350 | 36.75599 | 13628 ft | 172 kts | 55° |
| 2026-04-30 10:18 | -0.29708 | 36.76605 | 13628 ft | 172 kts | 55° |
| 2026-04-30 10:18 | -0.29070 | 36.77607 | 13628 ft | 172 kts | 55° |
| 2026-04-30 10:18 | -0.28424 | 36.78620 | 13628 ft | 172 kts | 55° |
| 2026-04-30 10:19 | -0.27140 | 36.80634 | 13628 ft | 172 kts | 55° |
| 2026-04-30 10:19 | -0.26494 | 36.81647 | 13628 ft | 172 kts | 55° |
| 2026-04-30 10:19 | -0.25852 | 36.82655 | 13628 ft | 172 kts | 55° |
| 2026-04-30 10:19 | -0.25210 | 36.83661 | 13628 ft | 172 kts | 55° |
| 2026-04-30 10:20 | -0.24569 | 36.84668 | 13628 ft | 172 kts | 55° |
| 2026-04-30 10:20 | -0.23287 | 36.86680 | 13628 ft | 172 kts | 55° |
| 2026-04-30 10:20 | -0.22646 | 36.87686 | 13628 ft | 172 kts | 55° |
| 2026-04-30 10:21 | -0.21997 | 36.88704 | 13628 ft | 172 kts | 55° |
| 2026-04-30 10:21 | -0.21356 | 36.89711 | 13628 ft | 172 kts | 55° |
| 2026-04-30 10:21 | -0.20715 | 36.90717 | 13628 ft | 172 kts | 55° |
| 2026-04-30 10:21 | -0.20074 | 36.91724 | 13626 ft | 170 kts | 56° |
| 2026-04-30 10:22 | -0.19441 | 36.92721 | 13523 ft | 170 kts | 56° |
| 2026-04-30 10:22 | -0.18801 | 36.93723 | 13382 ft | 170 kts | 56° |
| 2026-04-30 10:22 | -0.18165 | 36.94717 | 13230 ft | 169 kts | 56° |
| 2026-04-30 10:22 | -0.17533 | 36.95704 | 13064 ft | 167 kts | 56° |
| 2026-04-30 10:23 | -0.16904 | 36.96683 | 12887 ft | 167 kts | 56° |
| 2026-04-30 10:23 | -0.16280 | 36.97656 | 12710 ft | 167 kts | 56° |
| 2026-04-30 10:23 | -0.15678 | 36.98645 | 12533 ft | 167 kts | 59° |
| 2026-04-30 10:23 | -0.15126 | 36.99654 | 12359 ft | 167 kts | 59° |
| 2026-04-30 10:24 | -0.14565 | 37.00689 | 12180 ft | 168 kts | 59° |
| 2026-04-30 10:24 | -0.14013 | 37.01712 | 12003 ft | 166 kts | 60° |
| 2026-04-30 10:24 | -0.13466 | 37.02725 | 11784 ft | 164 kts | 60° |
| 2026-04-30 10:24 | -0.12930 | 37.03718 | 11555 ft | 161 kts | 60° |
| 2026-04-30 10:25 | -0.12402 | 37.04696 | 11326 ft | 159 kts | 60° |
| 2026-04-30 10:25 | -0.11881 | 37.05660 | 11098 ft | 157 kts | 60° |
| 2026-04-30 10:25 | -0.11362 | 37.06620 | 10871 ft | 157 kts | 60° |
| 2026-04-30 10:25 | -0.10841 | 37.07579 | 10644 ft | 156 kts | 60° |
| 2026-04-30 10:26 | -0.10366 | 37.08552 | 10415 ft | 154 kts | 64° |
| 2026-04-30 10:26 | -0.09916 | 37.09516 | 10185 ft | 151 kts | 64° |
| 2026-04-30 10:26 | -0.09481 | 37.10461 | 9957 ft | 149 kts | 66° |
| 2026-04-30 10:26 | -0.09082 | 37.11413 | 9731 ft | 148 kts | 66° |
| 2026-04-30 10:27 | -0.08688 | 37.12361 | 9505 ft | 147 kts | 67° |
| 2026-04-30 10:27 | -0.08292 | 37.13304 | 9279 ft | 147 kts | 67° |
| 2026-04-30 10:27 | -0.07893 | 37.14245 | 9053 ft | 146 kts | 67° |
| 2026-04-30 10:27 | -0.07492 | 37.15176 | 8830 ft | 147 kts | 67° |
| 2026-04-30 10:28 | -0.06987 | 37.16055 | 8653 ft | 143 kts | 41° |
| 2026-04-30 10:28 | -0.06120 | 37.16401 | 8609 ft | 128 kts | 4° |
| 2026-04-30 10:28 | -0.05255 | 37.16427 | 8518 ft | 122 kts | 355° |
| 2026-04-30 10:28 | -0.04422 | 37.16308 | 8382 ft | 121 kts | 343° |
| 2026-04-30 10:29 | -0.03624 | 37.16076 | 8230 ft | 122 kts | 336° |
| 2026-04-30 10:29 | -0.02877 | 37.15689 | 8109 ft | 113 kts | 326° |
| 2026-04-30 10:29 | -0.02401 | 37.15139 | 7893 ft | 105 kts | 283° |
| 2026-04-30 10:29 | -0.02587 | 37.14503 | 7665 ft | 98 kts | 209° |
| 2026-04-30 10:30 | -0.03214 | 37.14305 | 7394 ft | 98 kts | 188° |
| 2026-04-30 10:30 | -0.03846 | 37.14376 | 7092 ft | 79 kts | 165° |
| 2026-04-30 10:30 | -0.04212 | 37.14495 | 7127 ft | 35 kts | 161° |
| 2026-04-30 10:30 | -0.04361 | 37.14548 | 7146 ft | 21 kts | 162° |
| 2026-04-30 10:31 | -0.04498 | 37.14605 | 7158 ft | 13 kts | 140° |
| 2026-04-30 10:31 | -0.04513 | 37.14608 | 7159 ft | 0 kts | 297° |
| 2026-04-30 10:32 | -0.04490 | 37.14598 | 7157 ft | 15 kts | 337° |
| 2026-04-30 10:32 | -0.04221 | 37.14499 | 7128 ft | 71 kts | 334° |
| 2026-04-30 10:32 | -0.03723 | 37.14183 | 7276 ft | 89 kts | 298° |
| 2026-04-30 10:32 | -0.03801 | 37.13555 | 7388 ft | 101 kts | 255° |
| 2026-04-30 10:33 | -0.03982 | 37.12960 | 7137 ft | 86 kts | 223° |
| 2026-04-30 10:33 | -0.04415 | 37.12928 | 7077 ft | 42 kts | 149° |
| 2026-04-30 10:33 | -0.04574 | 37.12989 | 7099 ft | 9 kts | 162° |
| 2026-04-30 10:33 | -0.04582 | 37.12992 | 7101 ft | 0 kts | 162° |
| 2026-04-30 10:34 | -0.04655 | 37.13021 | 7113 ft | 31 kts | 162° |
| 2026-04-30 10:34 | -0.04947 | 37.13116 | 7161 ft | 39 kts | 174° |
| 2026-04-30 10:34 | -0.05099 | 37.13154 | 7181 ft | 7 kts | 156° |
| 2026-04-30 10:34 | -0.05103 | 37.13156 | 7182 ft | 0 kts | 156° |
| 2026-04-30 10:35 | -0.05104 | 37.13156 | 7182 ft | 1 kts | 179° |
| 2026-04-30 10:35 | -0.04995 | 37.13132 | 7167 ft | 40 kts | 343° |
| 2026-04-30 10:36 | -0.04534 | 37.12982 | 7121 ft | 94 kts | 339° |
| 2026-04-30 10:36 | -0.03901 | 37.12772 | 7349 ft | 95 kts | 334° |
| 2026-04-30 10:36 | -0.03314 | 37.12457 | 7566 ft | 96 kts | 321° |
| 2026-04-30 10:36 | -0.02787 | 37.12046 | 7813 ft | 93 kts | 305° |
| 2026-04-30 10:37 | -0.02653 | 37.11374 | 7883 ft | 110 kts | 258° |
| 2026-04-30 10:37 | -0.03052 | 37.10759 | 8132 ft | 110 kts | 212° |
| 2026-04-30 10:37 | -0.03763 | 37.10365 | 8214 ft | 127 kts | 208° |
| 2026-04-30 10:37 | -0.04564 | 37.09996 | 8483 ft | 124 kts | 202° |
| 2026-04-30 10:38 | -0.05358 | 37.09665 | 8704 ft | 127 kts | 205° |
| 2026-04-30 10:38 | -0.06167 | 37.09295 | 8915 ft | 129 kts | 206° |
| 2026-04-30 10:38 | -0.06986 | 37.08915 | 9104 ft | 132 kts | 206° |
| 2026-04-30 10:38 | -0.07858 | 37.08510 | 9135 ft | 145 kts | 206° |
| 2026-04-30 10:39 | -0.08806 | 37.08069 | 9134 ft | 155 kts | 206° |
| 2026-04-30 10:39 | -0.09793 | 37.07608 | 9132 ft | 161 kts | 206° |
| 2026-04-30 10:39 | -0.10814 | 37.07132 | 9130 ft | 164 kts | 206° |
| 2026-04-30 10:39 | -0.11856 | 37.06646 | 9129 ft | 166 kts | 207° |
| 2026-04-30 10:40 | -0.12887 | 37.06119 | 9129 ft | 167 kts | 209° |
| 2026-04-30 10:40 | -0.13922 | 37.05571 | 9129 ft | 168 kts | 209° |
| 2026-04-30 10:40 | -0.14951 | 37.05023 | 9129 ft | 168 kts | 209° |
| 2026-04-30 10:40 | -0.15982 | 37.04476 | 9129 ft | 169 kts | 209° |
| 2026-04-30 10:41 | -0.17019 | 37.03926 | 9129 ft | 169 kts | 209° |
| 2026-04-30 10:41 | -0.18059 | 37.03375 | 9129 ft | 169 kts | 209° |
| 2026-04-30 10:41 | -0.19097 | 37.02826 | 9086 ft | 170 kts | 209° |
| 2026-04-30 10:41 | -0.20138 | 37.02273 | 8960 ft | 168 kts | 210° |
| 2026-04-30 10:42 | -0.21166 | 37.01730 | 8830 ft | 164 kts | 209° |
| 2026-04-30 10:42 | -0.22164 | 37.01205 | 8703 ft | 161 kts | 209° |
| 2026-04-30 10:42 | -0.23145 | 37.00689 | 8575 ft | 158 kts | 210° |
| 2026-04-30 10:42 | -0.24090 | 37.00144 | 8448 ft | 156 kts | 212° |
| 2026-04-30 10:43 | -0.25021 | 36.99595 | 8322 ft | 155 kts | 212° |
| 2026-04-30 10:43 | -0.25944 | 36.99049 | 8169 ft | 154 kts | 213° |
| 2026-04-30 10:43 | -0.26855 | 36.98510 | 7964 ft | 151 kts | 208° |
| 2026-04-30 10:43 | -0.27737 | 36.97927 | 7761 ft | 151 kts | 212° |
| 2026-04-30 10:44 | -0.28601 | 36.97330 | 7559 ft | 151 kts | 212° |
| 2026-04-30 10:44 | -0.29461 | 36.96738 | 7356 ft | 150 kts | 211° |
| 2026-04-30 10:44 | -0.30330 | 36.96171 | 7159 ft | 150 kts | 210° |
| 2026-04-30 10:44 | -0.31175 | 36.95627 | 6963 ft | 150 kts | 210° |
| 2026-04-30 10:45 | -0.32096 | 36.95138 | 6767 ft | 150 kts | 204° |
| 2026-04-30 10:45 | -0.33062 | 36.94789 | 6595 ft | 144 kts | 194° |
| 2026-04-30 10:45 | -0.33974 | 36.94517 | 6515 ft | 125 kts | 204° |
| 2026-04-30 10:45 | -0.34350 | 36.93912 | 6482 ft | 101 kts | 255° |
| 2026-04-30 10:46 | -0.34587 | 36.93298 | 6490 ft | 94 kts | 237° |
| 2026-04-30 10:46 | -0.34821 | 36.92684 | 6452 ft | 97 kts | 259° |
| 2026-04-30 10:46 | -0.34706 | 36.92014 | 6373 ft | 101 kts | 294° |
| 2026-04-30 10:46 | -0.34273 | 36.91377 | 6324 ft | 122 kts | 305° |
| 2026-04-30 10:47 | -0.33765 | 36.90671 | 6495 ft | 126 kts | 305° |
| 2026-04-30 10:47 | -0.33293 | 36.89868 | 6515 ft | 145 kts | 292° |
| 2026-04-30 10:47 | -0.33186 | 36.88868 | 6657 ft | 147 kts | 268° |
| 2026-04-30 10:47 | -0.33215 | 36.87853 | 6853 ft | 146 kts | 270° |
| 2026-04-30 10:48 | -0.32708 | 36.87071 | 6976 ft | 145 kts | 344° |
| 2026-04-30 10:48 | -0.31885 | 36.87385 | 7009 ft | 133 kts | 74° |
| 2026-04-30 10:48 | -0.32306 | 36.88122 | 7042 ft | 120 kts | 126° |
| 2026-04-30 10:48 | -0.32644 | 36.88831 | 6991 ft | 113 kts | 109° |
| 2026-04-30 10:49 | -0.32963 | 36.89515 | 6755 ft | 103 kts | 117° |
| 2026-04-30 10:49 | -0.33337 | 36.90084 | 6538 ft | 95 kts | 122° |
| 2026-04-30 10:49 | -0.33714 | 36.90609 | 6382 ft | 91 kts | 124° |
| 2026-04-30 10:49 | -0.34066 | 36.91089 | 6313 ft | 77 kts | 123° |
| 2026-04-30 10:50 | -0.34320 | 36.91447 | 6305 ft | 47 kts | 125° |
| 2026-04-30 10:50 | -0.34471 | 36.91656 | 6304 ft | 29 kts | 125° |
| 2026-04-30 10:50 | -0.34563 | 36.91789 | 6300 ft | 18 kts | 123° |
| 2026-04-30 10:50 | -0.34605 | 36.91865 | 6299 ft | 6 kts | 110° |
| 2026-04-30 10:51 | -0.34608 | 36.91873 | 6299 ft | 1 kts | 108° |
| 2026-04-30 10:51 | -0.34619 | 36.91936 | 6299 ft | 16 kts | 108° |
| 2026-04-30 10:51 | -0.34636 | 36.91953 | 6299 ft | 0 kts | 233° |
| 2026-04-30 10:53 | -0.34638 | 36.91889 | 6299 ft | 28 kts | 304° |
| 2026-04-30 10:53 | -0.34409 | 36.91569 | 6315 ft | 80 kts | 306° |
| 2026-04-30 10:53 | -0.34040 | 36.91057 | 6407 ft | 104 kts | 308° |
| 2026-04-30 10:54 | -0.33522 | 36.90401 | 6427 ft | 129 kts | 311° |
| 2026-04-30 10:54 | -0.33766 | 36.89718 | 6637 ft | 121 kts | 184° |
| 2026-04-30 10:54 | -0.34640 | 36.89631 | 6712 ft | 137 kts | 183° |
| 2026-04-30 10:54 | -0.35641 | 36.89524 | 6747 ft | 154 kts | 188° |
| 2026-04-30 10:55 | -0.36712 | 36.89359 | 6875 ft | 158 kts | 186° |
| 2026-04-30 10:55 | -0.37826 | 36.89266 | 6946 ft | 165 kts | 181° |
| 2026-04-30 10:55 | -0.38990 | 36.89215 | 6964 ft | 171 kts | 180° |
| 2026-04-30 10:55 | -0.40184 | 36.89119 | 7034 ft | 172 kts | 185° |
| 2026-04-30 10:56 | -0.41376 | 36.88931 | 7079 ft | 174 kts | 186° |
| 2026-04-30 10:56 | -0.42572 | 36.88758 | 7158 ft | 173 kts | 185° |
| 2026-04-30 10:56 | -0.43763 | 36.88621 | 7225 ft | 173 kts | 185° |
| 2026-04-30 10:56 | -0.44959 | 36.88440 | 7265 ft | 175 kts | 187° |
| 2026-04-30 10:57 | -0.46162 | 36.88283 | 7340 ft | 174 kts | 184° |
| 2026-04-30 10:57 | -0.47365 | 36.88185 | 7410 ft | 174 kts | 181° |
| 2026-04-30 10:57 | -0.48564 | 36.88032 | 7448 ft | 176 kts | 191° |
| 2026-04-30 10:57 | -0.49745 | 36.87676 | 7504 ft | 176 kts | 195° |
| 2026-04-30 10:58 | -0.50874 | 36.87326 | 7757 ft | 166 kts | 194° |
| 2026-04-30 10:58 | -0.51972 | 36.86995 | 7907 ft | 165 kts | 194° |
| 2026-04-30 10:58 | -0.53078 | 36.86671 | 7997 ft | 169 kts | 194° |
| 2026-04-30 10:58 | -0.54231 | 36.86343 | 8003 ft | 175 kts | 193° |
| 2026-04-30 10:59 | -0.55415 | 36.86026 | 8002 ft | 178 kts | 191° |
| 2026-04-30 10:59 | -0.56631 | 36.85758 | 8002 ft | 180 kts | 190° |
| 2026-04-30 10:59 | -0.57863 | 36.85490 | 8003 ft | 181 kts | 190° |
| 2026-04-30 10:59 | -0.59094 | 36.85224 | 8001 ft | 181 kts | 190° |
| 2026-04-30 11:00 | -0.60308 | 36.84961 | 8005 ft | 182 kts | 190° |
| 2026-04-30 11:00 | -0.61543 | 36.84694 | 8002 ft | 182 kts | 190° |
| 2026-04-30 11:00 | -0.62775 | 36.84428 | 8001 ft | 182 kts | 190° |
| 2026-04-30 11:00 | -0.64008 | 36.84161 | 8004 ft | 182 kts | 190° |
| 2026-04-30 11:01 | -0.65253 | 36.83893 | 8004 ft | 182 kts | 190° |
| 2026-04-30 11:01 | -0.66499 | 36.83624 | 7995 ft | 182 kts | 190° |
| 2026-04-30 11:01 | -0.67729 | 36.83358 | 7997 ft | 182 kts | 190° |
| 2026-04-30 11:01 | -0.68964 | 36.83092 | 7999 ft | 181 kts | 190° |
| 2026-04-30 11:02 | -0.70194 | 36.82827 | 7999 ft | 182 kts | 190° |
| 2026-04-30 11:02 | -0.71425 | 36.82561 | 7998 ft | 182 kts | 190° |
| 2026-04-30 11:02 | -0.72657 | 36.82296 | 8005 ft | 182 kts | 190° |
| 2026-04-30 11:02 | -0.73895 | 36.82029 | 8000 ft | 182 kts | 190° |
| 2026-04-30 11:03 | -0.75141 | 36.81760 | 8003 ft | 182 kts | 190° |
| 2026-04-30 11:03 | -0.76373 | 36.81495 | 8003 ft | 182 kts | 190° |
| 2026-04-30 11:03 | -0.77609 | 36.81229 | 8001 ft | 182 kts | 190° |
| 2026-04-30 11:04 | -0.80085 | 36.80706 | 8001 ft | 182 kts | 187° |
| 2026-04-30 11:04 | -0.81329 | 36.80521 | 8012 ft | 181 kts | 186° |
| 2026-04-30 11:04 | -0.82570 | 36.80339 | 8030 ft | 180 kts | 186° |
| 2026-04-30 11:04 | -0.83813 | 36.80158 | 8047 ft | 180 kts | 186° |
| 2026-04-30 11:05 | -0.85046 | 36.79978 | 8065 ft | 179 kts | 186° |
| 2026-04-30 11:05 | -0.86273 | 36.79799 | 8083 ft | 179 kts | 186° |
| 2026-04-30 11:05 | -0.87496 | 36.79619 | 8101 ft | 178 kts | 186° |
| 2026-04-30 11:05 | -0.88717 | 36.79440 | 8119 ft | 178 kts | 186° |
| 2026-04-30 11:06 | -0.89939 | 36.79260 | 8137 ft | 178 kts | 186° |
| 2026-04-30 11:06 | -0.91156 | 36.79080 | 8155 ft | 177 kts | 186° |
| 2026-04-30 11:06 | -0.92374 | 36.78845 | 8172 ft | 177 kts | 190° |
| 2026-04-30 11:06 | -0.93578 | 36.78585 | 8190 ft | 177 kts | 190° |
| 2026-04-30 11:07 | -0.94780 | 36.78321 | 8208 ft | 177 kts | 190° |
| 2026-04-30 11:07 | -0.95977 | 36.78058 | 8226 ft | 177 kts | 190° |
| 2026-04-30 11:07 | -0.97173 | 36.77796 | 8236 ft | 177 kts | 190° |
| 2026-04-30 11:07 | -0.98366 | 36.77489 | 8236 ft | 178 kts | 194° |
| 2026-04-30 11:08 | -0.99552 | 36.77144 | 8236 ft | 178 kts | 194° |
| 2026-04-30 11:08 | -1.00746 | 36.76793 | 8236 ft | 178 kts | 194° |
| 2026-04-30 11:08 | -1.01926 | 36.76445 | 8236 ft | 178 kts | 194° |
| 2026-04-30 11:08 | -1.03095 | 36.76101 | 8236 ft | 178 kts | 194° |
| 2026-04-30 11:09 | -1.04271 | 36.75755 | 8236 ft | 178 kts | 194° |
| 2026-04-30 11:09 | -1.05435 | 36.75412 | 8236 ft | 177 kts | 194° |
| 2026-04-30 11:09 | -1.06616 | 36.75064 | 8236 ft | 177 kts | 194° |
| 2026-04-30 11:09 | -1.07781 | 36.74721 | 8236 ft | 177 kts | 194° |
| 2026-04-30 11:10 | -1.08558 | 36.74492 | 8236 ft | 177 kts | 194° |
| 2026-04-30 11:10 | -1.09728 | 36.74147 | 8236 ft | 177 kts | 194° |
| 2026-04-30 11:10 | -1.10792 | 36.73834 | 8237 ft | 177 kts | 194° |
| 2026-04-30 11:10 | -1.11737 | 36.73556 | 8237 ft | 177 kts | 194° |
| 2026-04-30 11:11 | -1.13154 | 36.73139 | 8237 ft | 177 kts | 194° |
| 2026-04-30 11:11 | -1.15676 | 36.72342 | 8237 ft | 177 kts | 196° |
| 2026-04-30 11:11 | -1.16843 | 36.71954 | 8237 ft | 177 kts | 196° |
| 2026-04-30 11:12 | -1.18005 | 36.71567 | 8237 ft | 177 kts | 196° |
| 2026-04-30 11:12 | -1.19175 | 36.71177 | 8237 ft | 177 kts | 196° |
| 2026-04-30 11:12 | -1.20348 | 36.70787 | 8237 ft | 177 kts | 196° |
| 2026-04-30 11:12 | -1.21505 | 36.70401 | 8236 ft | 173 kts | 196° |
| 2026-04-30 11:13 | -1.22598 | 36.70031 | 8229 ft | 162 kts | 196° |
| 2026-04-30 11:13 | -1.23676 | 36.69821 | 8093 ft | 159 kts | 175° |
| 2026-04-30 11:13 | -1.24761 | 36.69942 | 7952 ft | 160 kts | 169° |
| 2026-04-30 11:13 | -1.25847 | 36.70121 | 7806 ft | 161 kts | 168° |
| 2026-04-30 11:14 | -1.26916 | 36.70394 | 7661 ft | 161 kts | 163° |
| 2026-04-30 11:14 | -1.27979 | 36.70701 | 7514 ft | 161 kts | 161° |
| 2026-04-30 11:14 | -1.28737 | 36.71307 | 7389 ft | 161 kts | 118° |
| 2026-04-30 11:14 | -1.29031 | 36.72350 | 7259 ft | 162 kts | 102° |
| 2026-04-30 11:15 | -1.29246 | 36.73411 | 7104 ft | 159 kts | 103° |
| 2026-04-30 11:15 | -1.29388 | 36.74387 | 6868 ft | 156 kts | 94° |
| 2026-04-30 11:15 | -1.29409 | 36.75448 | 6666 ft | 144 kts | 94° |
| 2026-04-30 11:15 | -1.29542 | 36.76284 | 6368 ft | 143 kts | 107° |
| 2026-04-30 11:16 | -1.29841 | 36.77214 | 6193 ft | 131 kts | 106° |
| 2026-04-30 11:16 | -1.29960 | 36.77976 | 6180 ft | 103 kts | 99° |
| 2026-04-30 11:16 | -1.30067 | 36.78627 | 6096 ft | 94 kts | 104° |
| 2026-04-30 11:16 | -1.30236 | 36.79228 | 6047 ft | 90 kts | 110° |
| 2026-04-30 11:17 | -1.30512 | 36.79779 | 5947 ft | 90 kts | 128° |
| 2026-04-30 11:17 | -1.30940 | 36.80218 | 5803 ft | 89 kts | 134° |
| 2026-04-30 11:17 | -1.31362 | 36.80639 | 5674 ft | 87 kts | 135° |
| 2026-04-30 11:17 | -1.31782 | 36.81061 | 5553 ft | 84 kts | 136° |
| 2026-04-30 11:18 | -1.32147 | 36.81428 | 5479 ft | 63 kts | 136° |
| 2026-04-30 11:18 | -1.32316 | 36.81610 | 5473 ft | 5 kts | 308° |
| 2026-04-30 11:18 | -1.32240 | 36.81517 | 5474 ft | 26 kts | 322° |
| 2026-04-30 11:19 | -1.32069 | 36.81358 | 5488 ft | 33 kts | 313° |
| 2026-04-30 11:19 | -1.31958 | 36.81296 | 5499 ft | 16 kts | 57° |
| 2026-04-30 11:19 | -1.31890 | 36.81373 | 5499 ft | 13 kts | 35° |
| 2026-04-30 11:19 | -1.31890 | 36.81385 | 5499 ft | 0 kts | 186° |
| 2026-04-30 11:30 | -1.31895 | 36.81384 | 5499 ft | 3 kts | 186° |
| 2026-04-30 11:31 | -1.31936 | 36.81360 | 5498 ft | 9 kts | 234° |
| 2026-04-30 11:31 | -1.31947 | 36.81331 | 5498 ft | 2 kts | 257° |
| 2026-04-30 11:31 | -1.31948 | 36.81307 | 5499 ft | 7 kts | 275° |
| 2026-04-30 11:31 | -1.31921 | 36.81246 | 5502 ft | 11 kts | 300° |
| 2026-04-30 11:32 | -1.31910 | 36.81194 | 5504 ft | 3 kts | 223° |
| 2026-04-30 11:32 | -1.31935 | 36.81215 | 5503 ft | 8 kts | 134° |
| 2026-04-30 11:32 | -1.32028 | 36.81308 | 5496 ft | 39 kts | 135° |
| 2026-04-30 11:33 | -1.32768 | 36.82048 | 5609 ft | 90 kts | 139° |
| 2026-04-30 11:33 | -1.33220 | 36.82481 | 5761 ft | 94 kts | 137° |
| 2026-04-30 11:33 | -1.33803 | 36.82850 | 5850 ft | 105 kts | 166° |
| 2026-04-30 11:33 | -1.34544 | 36.82759 | 5986 ft | 112 kts | 196° |
| 2026-04-30 11:34 | -1.35327 | 36.82508 | 6018 ft | 127 kts | 195° |
| 2026-04-30 11:34 | -1.36182 | 36.82252 | 6116 ft | 133 kts | 195° |
| 2026-04-30 11:34 | -1.37099 | 36.81971 | 6154 ft | 142 kts | 195° |
| 2026-04-30 11:34 | -1.38074 | 36.81722 | 6206 ft | 147 kts | 191° |
| 2026-04-30 11:35 | -1.39085 | 36.81521 | 6198 ft | 154 kts | 183° |
| 2026-04-30 11:35 | -1.40122 | 36.81705 | 6252 ft | 154 kts | 154° |
| 2026-04-30 11:35 | -1.41032 | 36.82303 | 6256 ft | 157 kts | 143° |
| 2026-04-30 11:35 | -1.41922 | 36.82972 | 6186 ft | 164 kts | 141° |
| 2026-04-30 11:36 | -1.42795 | 36.83704 | 6141 ft | 164 kts | 138° |
| 2026-04-30 11:36 | -1.43625 | 36.84452 | 6147 ft | 161 kts | 139° |
| 2026-04-30 11:36 | -1.44475 | 36.85159 | 6143 ft | 160 kts | 141° |
| 2026-04-30 11:36 | -1.45338 | 36.85850 | 6142 ft | 159 kts | 141° |
| 2026-04-30 11:37 | -1.46197 | 36.86534 | 6145 ft | 158 kts | 141° |
| 2026-04-30 11:37 | -1.47058 | 36.87220 | 6145 ft | 158 kts | 141° |
| 2026-04-30 11:37 | -1.47910 | 36.87899 | 6144 ft | 158 kts | 141° |
| 2026-04-30 11:37 | -1.48765 | 36.88579 | 6145 ft | 158 kts | 141° |
| 2026-04-30 11:38 | -1.49615 | 36.89257 | 6141 ft | 158 kts | 141° |
| 2026-04-30 11:38 | -1.50463 | 36.89932 | 6144 ft | 157 kts | 141° |
| 2026-04-30 11:38 | -1.51315 | 36.90611 | 6144 ft | 157 kts | 141° |
| 2026-04-30 11:38 | -1.52277 | 36.91071 | 6139 ft | 157 kts | 174° |
| 2026-04-30 11:39 | -1.53345 | 36.91087 | 6262 ft | 152 kts | 179° |
| 2026-04-30 11:39 | -1.54395 | 36.91046 | 6386 ft | 150 kts | 180° |
| 2026-04-30 11:39 | -1.55432 | 36.90994 | 6508 ft | 149 kts | 181° |
| 2026-04-30 11:39 | -1.56399 | 36.90646 | 6627 ft | 150 kts | 206° |
| 2026-04-30 11:40 | -1.57292 | 36.90115 | 6749 ft | 150 kts | 208° |
| 2026-04-30 11:40 | -1.58177 | 36.89574 | 6873 ft | 149 kts | 208° |
| 2026-04-30 11:40 | -1.59060 | 36.89038 | 6997 ft | 149 kts | 208° |
| 2026-04-30 11:40 | -1.59948 | 36.88505 | 7121 ft | 148 kts | 207° |
| 2026-04-30 11:41 | -1.60825 | 36.87982 | 7245 ft | 148 kts | 207° |